createdAt,value
2022-07-27T00:00:30.473Z,19.20
2022-07-27T00:03:03.649Z,19.20
2022-07-27T00:05:36.753Z,19.20
2022-07-27T00:08:10.063Z,19.20
2022-07-27T00:10:42.800Z,19.20
2022-07-27T00:13:15.737Z,19.20
2022-07-27T00:15:48.883Z,19.10
2022-07-27T00:18:21.805Z,19.20
2022-07-27T00:20:55.250Z,19.10
2022-07-27T00:23:28.097Z,19.10
2022-07-27T00:26:00.776Z,19.10
2022-07-27T00:28:33.603Z,19.10
2022-07-27T00:31:06.618Z,19.10
2022-07-27T00:33:39.481Z,19.10
2022-07-27T00:36:12.373Z,19.10
2022-07-27T00:38:45.222Z,19.10
2022-07-27T00:41:18.357Z,19.10
2022-07-27T00:43:59.146Z,19.10
2022-07-27T00:46:32.691Z,19.10
2022-07-27T00:49:05.838Z,19.10
2022-07-27T00:51:38.830Z,19.10
2022-07-27T00:54:11.881Z,19.10
2022-07-27T00:56:44.951Z,19.10
2022-07-27T00:59:17.701Z,19.10
2022-07-27T01:01:50.674Z,19.10
2022-07-27T01:04:28.088Z,19.10
2022-07-27T01:07:04.281Z,19.00
2022-07-27T01:09:56.056Z,19.10
2022-07-27T01:12:32.179Z,19.00
2022-07-27T01:15:05.846Z,19.00
2022-07-27T01:17:38.856Z,19.00
2022-07-27T01:20:11.681Z,19.00
2022-07-27T01:22:44.536Z,19.00
2022-07-27T01:25:17.419Z,19.00
2022-07-27T01:27:50.380Z,19.00
2022-07-27T01:30:30.457Z,19.00
2022-07-27T01:33:05.598Z,19.00
2022-07-27T01:35:39.677Z,19.00
2022-07-27T01:38:13.436Z,19.00
2022-07-27T01:40:46.282Z,19.00
2022-07-27T01:43:19.361Z,18.90
2022-07-27T01:45:52.400Z,18.90
2022-07-27T01:48:26.146Z,18.90
2022-07-27T01:50:58.923Z,18.90
2022-07-27T01:53:31.668Z,18.80
2022-07-27T01:56:08.831Z,18.80
2022-07-27T01:58:43.114Z,18.80
2022-07-27T02:01:16.299Z,18.80
2022-07-27T02:03:49.104Z,18.80
2022-07-27T02:06:22.637Z,18.70
2022-07-27T02:08:55.461Z,18.70
2022-07-27T02:11:46.872Z,18.70
2022-07-27T02:14:21.363Z,18.70
2022-07-27T02:16:55.074Z,18.70
2022-07-27T02:19:28.442Z,18.70
2022-07-27T02:22:01.293Z,18.70
2022-07-27T02:24:35.359Z,18.60
2022-07-27T02:27:08.193Z,18.60
2022-07-27T02:29:40.959Z,18.60
2022-07-27T02:32:13.922Z,18.60
2022-07-27T02:34:46.737Z,18.60
2022-07-27T02:37:20.729Z,18.60
2022-07-27T02:39:53.881Z,18.60
2022-07-27T02:42:26.624Z,18.60
2022-07-27T02:44:59.440Z,18.60
2022-07-27T02:47:32.168Z,18.60
2022-07-27T02:50:05.649Z,18.60
2022-07-27T02:52:39.147Z,18.60
2022-07-27T02:55:12.003Z,18.60
2022-07-27T02:57:44.809Z,18.60
2022-07-27T03:00:17.933Z,18.60
2022-07-27T03:02:50.943Z,18.60
2022-07-27T03:05:23.880Z,18.60
2022-07-27T03:07:56.568Z,18.60
2022-07-27T03:10:29.532Z,18.60
2022-07-27T03:13:03.495Z,18.60
2022-07-27T03:15:37.281Z,18.60
2022-07-27T03:18:10.274Z,18.60
2022-07-27T03:20:42.967Z,18.60
2022-07-27T03:23:17.971Z,18.70
2022-07-27T03:25:50.906Z,18.60
2022-07-27T03:28:23.966Z,18.60
2022-07-27T03:30:56.962Z,18.50
2022-07-27T03:33:30.335Z,18.40
2022-07-27T03:36:04.248Z,18.30
2022-07-27T03:38:37.178Z,18.20
2022-07-27T03:41:10.067Z,18.20
2022-07-27T03:43:43.290Z,18.10
2022-07-27T03:46:16.290Z,18.10
2022-07-27T03:48:49.382Z,18.00
2022-07-27T03:51:22.985Z,18.00
2022-07-27T03:53:56.065Z,18.00
2022-07-27T03:56:29.405Z,17.90
2022-07-27T03:59:02.390Z,17.90
2022-07-27T04:01:35.595Z,18.00
2022-07-27T04:04:08.720Z,18.00
2022-07-27T04:06:42.099Z,18.00
2022-07-27T04:09:17.124Z,17.90
2022-07-27T04:11:52.472Z,17.90
2022-07-27T04:14:28.695Z,18.00
2022-07-27T04:17:01.977Z,17.90
2022-07-27T04:19:34.960Z,17.90
2022-07-27T04:22:08.100Z,17.90
2022-07-27T04:24:41.023Z,17.90
2022-07-27T04:27:15.751Z,17.90
2022-07-27T04:29:48.942Z,17.90
2022-07-27T04:32:22.277Z,18.00
2022-07-27T04:34:55.262Z,18.00
2022-07-27T04:37:28.403Z,18.00
2022-07-27T04:40:01.623Z,18.00
2022-07-27T04:42:34.715Z,18.00
2022-07-27T04:45:08.126Z,18.00
2022-07-27T04:47:41.503Z,18.00
2022-07-27T04:50:14.487Z,18.00
2022-07-27T04:52:50.812Z,18.10
2022-07-27T04:55:23.765Z,18.10
2022-07-27T04:57:56.593Z,18.20
2022-07-27T05:00:29.775Z,18.10
2022-07-27T05:03:03.081Z,18.10
2022-07-27T05:05:36.641Z,18.20
2022-07-27T05:08:10.715Z,18.20
2022-07-27T05:10:43.695Z,18.20
2022-07-27T05:13:16.927Z,18.30
2022-07-27T05:15:54.751Z,18.30
2022-07-27T05:18:32.671Z,18.40
2022-07-27T05:21:07.712Z,18.30
2022-07-27T05:23:41.948Z,18.40
2022-07-27T05:26:14.943Z,18.40
2022-07-27T05:28:48.000Z,18.40
2022-07-27T05:31:21.089Z,18.40
2022-07-27T05:33:58.367Z,18.40
2022-07-27T05:36:31.957Z,18.40
2022-07-27T05:39:08.141Z,18.40
2022-07-27T05:41:43.365Z,18.40
2022-07-27T05:44:16.331Z,18.40
2022-07-27T05:46:49.206Z,18.50
2022-07-27T05:49:22.602Z,18.60
2022-07-27T05:51:56.191Z,18.60
2022-07-27T05:54:29.159Z,18.60
2022-07-27T05:57:04.089Z,18.70
2022-07-27T05:59:37.003Z,18.90
2022-07-27T06:02:10.192Z,18.90
2022-07-27T06:04:43.113Z,18.90
2022-07-27T06:07:34.460Z,19.00
2022-07-27T06:10:08.695Z,19.10
2022-07-27T06:12:43.716Z,19.10
2022-07-27T06:15:17.214Z,19.20
2022-07-27T06:17:52.771Z,19.20
2022-07-27T06:20:27.196Z,19.30
2022-07-27T06:23:03.292Z,19.40
2022-07-27T06:25:41.348Z,19.40
2022-07-27T06:28:14.352Z,19.40
2022-07-27T06:30:47.957Z,19.50
2022-07-27T06:33:28.325Z,19.50
2022-07-27T06:36:02.518Z,19.50
2022-07-27T06:38:35.701Z,19.60
2022-07-27T06:41:09.004Z,19.70
2022-07-27T06:43:42.061Z,19.90
2022-07-27T06:46:16.010Z,20.00
2022-07-27T06:48:49.181Z,20.10
2022-07-27T06:51:22.840Z,20.20
2022-07-27T06:53:55.935Z,20.40
2022-07-27T06:56:28.868Z,20.20
2022-07-27T06:59:01.866Z,20.10
2022-07-27T07:01:40.038Z,20.20
2022-07-27T07:04:13.140Z,20.20
2022-07-27T07:06:46.196Z,20.20
2022-07-27T07:09:19.412Z,20.20
2022-07-27T07:11:52.288Z,20.30
2022-07-27T07:14:26.260Z,20.40
2022-07-27T07:17:01.578Z,20.30
2022-07-27T07:19:34.545Z,20.20
2022-07-27T07:22:07.411Z,20.00
2022-07-27T07:24:40.398Z,19.90
2022-07-27T07:27:13.324Z,20.00
2022-07-27T07:29:46.407Z,19.90
2022-07-27T07:32:22.909Z,19.80
2022-07-27T07:34:56.246Z,19.70
2022-07-27T07:37:33.671Z,19.70
2022-07-27T07:40:40.227Z,19.80
2022-07-27T07:43:03.442Z,20.10
2022-07-27T07:45:39.042Z,20.30
2022-07-27T07:48:24.791Z,20.50
2022-07-27T07:50:57.871Z,20.60
2022-07-27T07:53:30.868Z,20.80
2022-07-27T07:56:04.228Z,21.00
2022-07-27T07:58:37.291Z,21.20
2022-07-27T08:01:12.179Z,21.40
2022-07-27T08:03:50.633Z,21.60
2022-07-27T08:10:42.793Z,21.80
2022-07-27T08:13:21.469Z,22.00
2022-07-27T08:15:55.394Z,22.20
2022-07-27T08:18:28.360Z,22.40
2022-07-27T08:21:01.342Z,22.50
2022-07-27T08:23:34.388Z,22.70
2022-07-27T08:26:08.161Z,22.80
2022-07-27T08:28:41.369Z,23.00
2022-07-27T08:31:18.870Z,23.20
2022-07-27T08:33:57.262Z,23.20
2022-07-27T08:36:30.271Z,23.10
2022-07-27T08:39:08.491Z,22.90
2022-07-27T08:41:43.077Z,22.70
2022-07-27T08:44:16.491Z,22.60
2022-07-27T08:46:51.542Z,22.80
2022-07-27T08:49:36.414Z,23.00
2022-07-27T08:52:16.199Z,23.10
2022-07-27T08:54:49.620Z,23.40
2022-07-27T08:57:22.655Z,23.60
2022-07-27T08:59:56.838Z,23.70
2022-07-27T09:02:29.905Z,23.80
2022-07-27T09:05:04.911Z,24.00
2022-07-27T09:07:38.014Z,24.10
2022-07-27T09:10:11.555Z,24.20
2022-07-27T09:12:44.540Z,24.20
2022-07-27T09:15:18.050Z,24.40
2022-07-27T09:17:51.050Z,24.60
2022-07-27T09:20:24.056Z,24.70
2022-07-27T09:22:57.145Z,24.70
2022-07-27T09:26:00.790Z,24.80
2022-07-27T09:28:32.410Z,24.80
2022-07-27T09:31:07.704Z,24.60
2022-07-27T09:34:01.617Z,24.70
2022-07-27T09:36:48.827Z,24.80
2022-07-27T09:39:24.103Z,24.90
2022-07-27T09:42:02.515Z,25.00
2022-07-27T09:44:43.405Z,24.70
2022-07-27T09:47:26.690Z,24.60
2022-07-27T09:50:26.271Z,24.60
2022-07-27T09:53:41.651Z,24.70
2022-07-27T09:56:17.728Z,24.80
2022-07-27T09:58:56.590Z,24.80
2022-07-27T10:01:35.685Z,24.90
2022-07-27T10:04:09.137Z,24.90
2022-07-27T10:07:01.717Z,25.00
2022-07-27T10:09:35.499Z,25.00
2022-07-27T10:12:09.370Z,25.00
2022-07-27T10:14:42.319Z,25.10
2022-07-27T10:17:15.890Z,25.10
2022-07-27T10:19:51.899Z,25.00
2022-07-27T10:22:51.671Z,25.10
2022-07-27T10:25:27.436Z,24.90
2022-07-27T10:28:13.095Z,24.80
2022-07-27T10:30:49.460Z,24.60
2022-07-27T10:33:45.056Z,24.60
2022-07-27T10:36:25.442Z,24.80
2022-07-27T10:39:01.765Z,25.00
2022-07-27T10:41:40.435Z,25.10
2022-07-27T10:44:20.999Z,24.90
2022-07-27T10:46:56.951Z,24.90
2022-07-27T10:49:32.859Z,24.90
2022-07-27T10:52:45.102Z,25.00
2022-07-27T10:55:30.824Z,25.00
2022-07-27T10:58:09.665Z,25.10
2022-07-27T11:00:55.044Z,25.40
2022-07-27T11:03:42.454Z,25.80
2022-07-27T11:06:33.059Z,26.10
2022-07-27T11:12:02.382Z,26.40
2022-07-27T11:14:56.279Z,26.20
2022-07-27T11:20:24.367Z,26.60
2022-07-27T11:23:49.823Z,26.80
2022-07-27T11:26:02.106Z,26.50
2022-07-27T11:28:36.829Z,26.20
2022-07-27T11:31:15.178Z,26.00
2022-07-27T11:34:00.620Z,25.50
2022-07-27T11:36:41.352Z,25.50
2022-07-27T11:39:28.598Z,25.60
2022-07-27T11:42:12.302Z,26.00
2022-07-27T11:44:46.330Z,26.30
2022-07-27T11:47:21.453Z,26.60
2022-07-27T11:50:04.075Z,26.90
2022-07-27T11:52:37.056Z,27.30
2022-07-27T11:55:10.079Z,27.80
2022-07-27T11:57:46.584Z,28.00
2022-07-27T12:00:19.613Z,28.00
2022-07-27T12:02:52.647Z,27.50
2022-07-27T12:05:25.864Z,27.00
2022-07-27T12:07:59.015Z,26.60
2022-07-27T12:10:35.891Z,26.40
2022-07-27T12:13:19.142Z,26.70
2022-07-27T12:15:58.421Z,27.00
2022-07-27T12:18:44.030Z,27.40
2022-07-27T12:21:18.306Z,27.60
2022-07-27T12:23:52.833Z,27.40
2022-07-27T12:26:29.992Z,27.20
2022-07-27T12:29:11.809Z,27.20
2022-07-27T12:31:49.363Z,27.10
2022-07-27T12:34:22.272Z,27.00
2022-07-27T12:36:55.194Z,26.90
2022-07-27T12:39:29.833Z,26.60
2022-07-27T12:42:06.721Z,26.30
2022-07-27T12:44:44.676Z,26.10
2022-07-27T12:47:40.120Z,25.90
2022-07-27T12:50:17.896Z,25.70
2022-07-27T12:52:52.880Z,25.60
2022-07-27T12:55:26.291Z,25.70
2022-07-27T12:57:59.483Z,25.70
2022-07-27T13:00:34.327Z,25.70
2022-07-27T13:03:08.425Z,25.70
2022-07-27T13:05:41.583Z,25.60
2022-07-27T13:08:16.639Z,25.60
2022-07-27T13:10:52.201Z,25.60
2022-07-27T13:13:25.334Z,25.50
2022-07-27T13:15:58.263Z,25.60
2022-07-27T13:18:31.259Z,25.60
2022-07-27T13:21:04.341Z,25.50
2022-07-27T13:23:37.724Z,25.40
2022-07-27T13:26:10.777Z,25.40
2022-07-27T13:28:43.769Z,25.20
2022-07-27T13:31:16.849Z,25.20
2022-07-27T13:33:50.944Z,25.10
2022-07-27T13:36:24.152Z,25.00
2022-07-27T13:38:57.104Z,24.80
2022-07-27T13:41:30.618Z,24.70
2022-07-27T13:44:04.545Z,24.70
2022-07-27T13:46:38.519Z,24.70
2022-07-27T13:49:11.833Z,24.70
2022-07-27T13:51:45.960Z,24.80
2022-07-27T13:54:19.164Z,24.90
2022-07-27T13:59:45.197Z,25.00
2022-07-27T14:02:20.630Z,25.00
2022-07-27T14:04:59.070Z,25.00
2022-07-27T14:07:33.391Z,25.00
2022-07-27T14:10:36.455Z,24.90
2022-07-27T14:13:14.500Z,24.80
2022-07-27T14:15:52.982Z,24.60
2022-07-27T14:18:30.197Z,24.40
2022-07-27T14:21:06.103Z,24.20
2022-07-27T14:23:39.624Z,24.10
2022-07-27T14:26:12.961Z,24.00
2022-07-27T14:28:46.265Z,24.10
2022-07-27T14:31:21.023Z,24.10
2022-07-27T14:33:54.342Z,24.20
2022-07-27T14:36:28.028Z,24.20
2022-07-27T14:39:01.095Z,24.20
2022-07-27T14:41:35.377Z,24.20
2022-07-27T14:44:08.383Z,24.20
2022-07-27T14:46:41.335Z,24.30
2022-07-27T14:49:17.368Z,24.30
2022-07-27T14:51:51.226Z,24.30
2022-07-27T14:54:24.213Z,24.30
2022-07-27T14:56:57.144Z,24.50
2022-07-27T14:59:30.121Z,24.50
2022-07-27T15:02:03.697Z,24.50
2022-07-27T15:04:37.146Z,24.50
2022-07-27T15:07:10.121Z,24.60
2022-07-27T15:09:43.042Z,24.60
2022-07-27T15:12:16.160Z,24.50
2022-07-27T15:14:49.156Z,24.50
2022-07-27T15:17:22.096Z,24.40
2022-07-27T15:19:55.715Z,24.30
2022-07-27T15:22:28.775Z,24.20
2022-07-27T15:25:02.604Z,24.20
2022-07-27T15:27:36.065Z,24.10
2022-07-27T15:30:09.693Z,24.00
2022-07-27T15:32:42.721Z,23.80
2022-07-27T15:35:15.958Z,23.80
2022-07-27T15:37:54.310Z,23.70
2022-07-27T15:40:37.167Z,23.70
2022-07-27T15:43:12.706Z,23.60
2022-07-27T15:45:50.797Z,23.60
2022-07-27T15:48:26.082Z,23.50
2022-07-27T15:50:59.268Z,23.40
2022-07-27T15:53:49.219Z,23.40
2022-07-27T15:57:14.297Z,23.40
2022-07-27T15:59:51.787Z,23.40
2022-07-27T16:02:26.589Z,23.40
2022-07-27T16:04:59.664Z,23.40
2022-07-27T16:07:41.715Z,23.40
2022-07-27T16:10:14.861Z,23.40
2022-07-27T16:12:48.559Z,23.40
2022-07-27T16:15:43.274Z,23.40
2022-07-27T16:18:44.785Z,23.40
2022-07-27T16:21:54.311Z,23.40
2022-07-27T16:24:26.464Z,23.40
2022-07-27T16:27:00.456Z,23.40
2022-07-27T16:29:35.329Z,23.40
2022-07-27T16:32:14.440Z,23.40
2022-07-27T16:34:48.484Z,23.40
2022-07-27T16:37:21.483Z,23.40
2022-07-27T16:39:54.594Z,23.50
2022-07-27T16:42:27.682Z,23.50
2022-07-27T16:45:00.704Z,23.50
2022-07-27T16:47:34.147Z,23.40
2022-07-27T16:50:10.550Z,23.40
2022-07-27T16:52:43.745Z,23.30
2022-07-27T16:55:17.092Z,23.40
2022-07-27T16:57:50.260Z,23.40
2022-07-27T17:00:23.823Z,23.40
2022-07-27T17:02:57.054Z,23.30
2022-07-27T17:05:30.450Z,23.30
2022-07-27T17:08:04.308Z,23.30
2022-07-27T17:10:38.807Z,23.30
2022-07-27T17:13:13.319Z,23.30
2022-07-27T17:15:47.150Z,23.40
2022-07-27T17:18:22.236Z,23.40
2022-07-27T17:20:55.419Z,23.40
2022-07-27T17:23:33.473Z,23.50
2022-07-27T17:26:07.478Z,23.50
2022-07-27T17:28:41.310Z,23.60
2022-07-27T17:31:15.790Z,23.70
2022-07-27T17:33:51.129Z,23.70
2022-07-27T17:36:25.331Z,23.80
2022-07-27T17:38:58.418Z,23.80
2022-07-27T17:41:32.708Z,23.80
2022-07-27T17:44:06.044Z,23.80
2022-07-27T17:46:39.245Z,23.70
2022-07-27T17:49:12.639Z,23.70
2022-07-27T17:51:46.134Z,23.70
2022-07-27T17:54:19.189Z,23.70
2022-07-27T17:56:53.156Z,23.70
2022-07-27T17:59:37.754Z,23.60
2022-07-27T18:02:12.777Z,23.60
2022-07-27T18:04:46.374Z,23.60
2022-07-27T18:07:19.763Z,23.50
2022-07-27T18:09:52.826Z,23.40
2022-07-27T18:12:25.999Z,23.40
2022-07-27T18:15:17.387Z,23.40
2022-07-27T18:17:50.554Z,23.40
2022-07-27T18:20:23.568Z,23.30
2022-07-27T18:22:56.757Z,23.30
2022-07-27T18:25:32.016Z,23.20
2022-07-27T18:28:05.649Z,23.20
2022-07-27T18:30:38.723Z,23.20
2022-07-27T18:33:13.203Z,23.20
2022-07-27T18:35:47.210Z,23.20
2022-07-27T18:38:20.384Z,23.10
2022-07-27T18:40:53.598Z,23.00
2022-07-27T18:43:26.873Z,22.90
2022-07-27T18:45:59.900Z,22.90
2022-07-27T18:48:33.290Z,22.80
2022-07-27T18:51:06.312Z,22.70
2022-07-27T18:53:40.278Z,22.60
2022-07-27T18:56:13.914Z,22.50
2022-07-27T18:58:47.139Z,22.40
2022-07-27T19:01:20.374Z,22.40
2022-07-27T19:03:54.202Z,22.30
2022-07-27T19:06:27.728Z,22.20
2022-07-27T19:09:00.902Z,22.10
2022-07-27T19:11:34.149Z,22.10
2022-07-27T19:14:07.747Z,22.00
2022-07-27T19:16:40.795Z,22.00
2022-07-27T19:19:17.949Z,21.90
2022-07-27T19:21:53.729Z,21.80
2022-07-27T19:24:26.973Z,21.70
2022-07-27T19:26:59.977Z,21.60
2022-07-27T19:29:33.614Z,21.60
2022-07-27T19:32:08.438Z,21.60
2022-07-27T19:34:41.858Z,21.60
2022-07-27T19:37:14.851Z,21.50
2022-07-27T19:39:57.792Z,21.50
2022-07-27T19:42:39.792Z,21.50
2022-07-27T19:45:12.892Z,21.40
2022-07-27T19:47:46.159Z,21.30
2022-07-27T19:50:20.525Z,21.20
2022-07-27T19:52:53.673Z,21.10
2022-07-27T19:55:27.254Z,21.00
2022-07-27T19:58:00.509Z,21.00
2022-07-27T20:00:34.097Z,21.10
2022-07-27T20:03:10.064Z,21.00
2022-07-27T20:05:43.641Z,20.90
2022-07-27T20:08:16.749Z,20.90
2022-07-27T20:10:49.991Z,20.80
2022-07-27T20:13:24.870Z,20.90
2022-07-27T20:15:59.708Z,20.80
2022-07-27T20:18:35.134Z,20.70
2022-07-27T20:21:22.436Z,20.70
2022-07-27T20:23:58.565Z,20.60
2022-07-27T20:26:31.898Z,20.50
2022-07-27T20:29:04.913Z,20.40
2022-07-27T20:31:38.869Z,20.30
2022-07-27T20:34:11.923Z,20.20
2022-07-27T20:36:45.311Z,20.20
2022-07-27T20:39:19.240Z,20.10
2022-07-27T20:41:52.701Z,20.10
2022-07-27T20:44:28.960Z,20.00
2022-07-27T20:47:02.386Z,20.00
2022-07-27T20:49:35.874Z,20.10
2022-07-27T20:52:09.171Z,20.00
2022-07-27T20:54:42.115Z,20.00
2022-07-27T20:57:15.431Z,19.90
2022-07-27T20:59:48.425Z,19.90
2022-07-27T21:02:21.660Z,19.90
2022-07-27T21:04:55.012Z,19.90
2022-07-27T21:07:28.354Z,19.70
2022-07-27T21:10:01.348Z,19.70
2022-07-27T21:12:34.619Z,19.60
2022-07-27T21:15:13.112Z,19.70
2022-07-27T21:17:46.698Z,19.70
2022-07-27T21:20:19.794Z,19.60
2022-07-27T21:23:12.327Z,19.70
2022-07-27T21:25:45.354Z,19.60
2022-07-27T21:28:24.726Z,19.50
2022-07-27T21:30:58.076Z,19.50
2022-07-27T21:33:37.565Z,19.50
2022-07-27T21:36:12.719Z,19.50
2022-07-27T21:38:46.105Z,19.50
2022-07-27T21:41:20.418Z,19.40
2022-07-27T21:43:53.648Z,19.30
2022-07-27T21:46:26.814Z,19.30
2022-07-27T21:49:00.001Z,19.30
2022-07-27T21:51:33.084Z,19.30
2022-07-27T21:54:06.673Z,19.20
2022-07-27T21:56:41.820Z,19.10
2022-07-27T21:59:17.771Z,19.00
2022-07-27T22:01:50.721Z,19.00
2022-07-27T22:04:23.967Z,19.00
2022-07-27T22:06:57.120Z,19.00
2022-07-27T22:09:30.034Z,18.90
2022-07-27T22:12:03.065Z,19.00
2022-07-27T22:14:36.037Z,18.90
2022-07-27T22:17:15.250Z,18.90
2022-07-27T22:19:54.718Z,18.80
2022-07-27T22:22:27.918Z,18.80
2022-07-27T22:25:01.111Z,18.80
2022-07-27T22:27:34.313Z,18.70
2022-07-27T22:30:09.301Z,18.60
2022-07-27T22:32:42.362Z,18.50
2022-07-27T22:35:15.688Z,18.40
2022-07-27T22:37:49.535Z,18.40
2022-07-27T22:40:22.862Z,18.40
2022-07-27T22:42:55.939Z,18.40
2022-07-27T22:45:29.056Z,18.40
2022-07-27T22:48:05.061Z,18.40
2022-07-27T22:50:37.999Z,18.40
2022-07-27T22:53:11.080Z,18.40
2022-07-27T22:55:44.060Z,18.30
2022-07-27T22:58:17.291Z,18.30
2022-07-27T23:00:51.198Z,18.40
2022-07-27T23:03:25.573Z,18.40
2022-07-27T23:05:59.634Z,18.40
2022-07-27T23:08:32.634Z,18.40
2022-07-27T23:11:05.554Z,18.40
2022-07-27T23:13:38.600Z,18.40
2022-07-27T23:16:11.765Z,18.40
2022-07-27T23:18:44.883Z,18.40
2022-07-27T23:21:17.985Z,18.40
2022-07-27T23:23:53.673Z,18.40
2022-07-27T23:26:27.448Z,18.40
2022-07-27T23:29:00.905Z,18.20
2022-07-27T23:31:33.988Z,18.20
2022-07-27T23:34:07.555Z,18.20
2022-07-27T23:36:43.700Z,18.10
2022-07-27T23:39:17.830Z,18.10
2022-07-27T23:41:50.757Z,18.10
2022-07-27T23:44:23.777Z,18.00
2022-07-27T23:46:56.966Z,18.10
2022-07-27T23:49:30.190Z,18.10
2022-07-27T23:52:03.862Z,18.10
2022-07-27T23:54:36.932Z,18.00
2022-07-27T23:57:09.897Z,18.00
2022-07-27T23:59:42.941Z,17.90
